History for KNYNEWYO831

west village, New York City, NY — Current Conditions
Daily Summary for January 20, 2019
  Current: High: Low: Average:
Temperature: 26.4°F 46.6°F 26.6°F 36.6°F
Dew Point: 17.2°F 46.0°F 16.7°F 34.5°F
Humidity: 68% 99% 65% 91%
Wind Speed: 49.7mph 64.6mph - 15.6mph
Wind Gust: 57.5mph 72.5mph - -
Wind: West - - WNW
Pressure: 29.52in 29.82in 29.20in -
Precipitation: 0.96in      
Solar Radiation: 19 watts/m^2      
UV Index: 0.0      
Statistics for the rest of the month
    High: Low: Average:
Temperature:   58.5°F 19.8°F 34.7°F
Dew Point:   53.8°F 1.2°F 24.0°F
Humidity:   99.0% 29.0% 65.4%
Wind Speed:   66.2mph from the West - 12.7mph
Wind Gust:   77.6mph from the West - -
Wind:   - - WNW
Pressure:   30.57in 29.20in -
Precipitation:   1.94in    
KNYNEWYO831 Weather Graph
Tabular Data for January 20, 2019
Time Temp. Windchill Dew Point Pressure Wind Gust Humidity Rainfall Solar Radiation
00:04 34.9°F 29.3°F 33.6°F 29.81in 9.8mph 95% 0.21in 0.00 watts/m^2
00:09 34.9°F 28.9°F 33.6°F 29.81in 9.8mph 95% 0.14in 0.00 watts/m^2
00:14 35.1°F 30.6°F 33.8°F 29.81in 7.4mph 95% 0.21in 0.00 watts/m^2
00:19 35.1°F - 33.8°F 29.81in 4.9mph 95% 0.28in 0.00 watts/m^2
00:24 35.1°F - 33.8°F 29.80in 4.9mph 95% 0.28in 0.00 watts/m^2
00:29 35.2°F 30.1°F 34.0°F 29.80in 7.4mph 95% 0.28in 0.00 watts/m^2
00:34 35.2°F 27.4°F 34.0°F 29.79in 15.0mph 95% 0.35in 0.00 watts/m^2
00:39 35.2°F 28.6°F 34.0°F 29.78in 12.3mph 95% 0.28in 0.00 watts/m^2
00:44 35.2°F 26.9°F 34.0°F 29.75in 17.4mph 95% 0.21in 0.00 watts/m^2
00:49 35.1°F 30.2°F 33.8°F 29.75in 7.4mph 95% 0.21in 0.00 watts/m^2
00:54 35.1°F 27.0°F 33.8°F 29.73in 19.9mph 95% 0.14in 0.00 watts/m^2
00:59 35.1°F 29.0°F 33.8°F 29.72in 9.8mph 95% 0.21in 0.00 watts/m^2
01:04 35.1°F 27.8°F 34.0°F 29.71in 12.3mph 96% 0.21in 0.00 watts/m^2
01:09 35.1°F 24.1°F 34.0°F 29.72in 22.4mph 96% 0.21in 0.00 watts/m^2
01:14 35.2°F 29.1°F 34.2°F 29.72in 9.8mph 96% 0.07in 0.00 watts/m^2
01:19 35.4°F 31.0°F 34.3°F 29.73in 9.8mph 96% 0.07in 0.00 watts/m^2
01:24 35.6°F - 34.5°F 29.74in 2.5mph 96% 0.14in 0.00 watts/m^2
01:29 35.6°F - 34.5°F 29.74in 2.5mph 96% 0.14in 0.00 watts/m^2
01:34 35.8°F - 34.7°F 29.75in 2.5mph 96% 0.21in 0.00 watts/m^2
01:39 36.0°F - 34.7°F 29.74in 2.5mph 95% 0.21in 0.00 watts/m^2
01:44 36.1°F 33.5°F 34.9°F 29.74in 4.9mph 95% 0.28in 0.00 watts/m^2
01:49 36.3°F - 35.1°F 29.72in 4.9mph 95% 0.21in 0.00 watts/m^2
01:54 36.5°F 33.7°F 35.2°F 29.72in 4.9mph 95% 0.14in 0.00 watts/m^2
01:59 36.5°F - 35.2°F 29.73in 4.9mph 95% 0.21in 0.00 watts/m^2
02:04 36.7°F - 35.4°F 29.72in 4.9mph 95% 0.28in 0.00 watts/m^2
02:09 36.7°F - 35.4°F 29.71in 2.5mph 95% 0.21in 0.00 watts/m^2
02:14 36.7°F 31.0°F 35.4°F 29.74in 9.8mph 95% 0.07in 0.00 watts/m^2
02:19 36.5°F 30.0°F 35.2°F 29.73in 9.8mph 95% 0.07in 0.00 watts/m^2
02:24 36.3°F 29.7°F 35.1°F 29.74in 9.8mph 95% 0.07in 0.00 watts/m^2
02:29 36.1°F 28.7°F 34.9°F 29.72in 12.3mph 95% 0.07in 0.00 watts/m^2
02:34 36.0°F 31.9°F 34.7°F 29.70in 7.4mph 95% 0.14in 0.00 watts/m^2
02:39 35.8°F - 34.5°F 29.70in 2.5mph 95% 0.14in 0.00 watts/m^2
02:44 35.6°F 30.2°F 34.3°F 29.68in 9.8mph 95% 0.14in 0.00 watts/m^2
02:49 35.8°F 28.6°F 34.5°F 29.65in 15.0mph 95% 0.07in 0.00 watts/m^2
02:54 35.8°F 26.5°F 34.5°F 29.64in 17.4mph 95% 0.00in 0.00 watts/m^2
02:59 36.0°F 29.3°F 34.7°F 29.63in 12.3mph 95% 0.07in 0.00 watts/m^2
03:04 36.1°F 27.9°F 34.9°F 29.63in 15.0mph 95% 0.07in 0.00 watts/m^2
03:09 36.3°F 32.1°F 35.1°F 29.63in 7.4mph 95% 0.00in 0.00 watts/m^2
03:14 36.3°F 32.1°F 34.7°F 29.64in 7.4mph 94% 0.07in 0.00 watts/m^2
03:19 36.5°F 29.9°F 34.9°F 29.62in 9.8mph 94% 0.21in 0.00 watts/m^2
03:24 36.5°F 28.1°F 35.2°F 29.62in 19.9mph 95% 0.21in 0.00 watts/m^2
03:29 36.5°F - 34.9°F 29.62in 2.5mph 94% 0.14in 0.00 watts/m^2
03:34 36.7°F - 35.4°F 29.61in 2.5mph 95% 0.07in 0.00 watts/m^2
03:39 36.7°F 30.2°F 35.4°F 29.61in 12.3mph 95% 0.07in 0.00 watts/m^2
03:44 36.7°F 34.2°F 35.4°F 29.61in 4.9mph 95% 0.14in 0.00 watts/m^2
03:49 36.9°F - 35.6°F 29.61in 4.9mph 95% 0.14in 0.00 watts/m^2
03:54 36.9°F 31.7°F 35.6°F 29.60in 7.4mph 95% 0.14in 0.00 watts/m^2
03:59 36.9°F - 35.6°F 29.60in 2.5mph 95% 0.14in 0.00 watts/m^2
04:04 36.9°F 30.3°F 35.6°F 29.58in 9.8mph 95% 0.14in 0.00 watts/m^2
04:09 36.9°F - 35.6°F 29.59in 4.9mph 95% 0.07in 0.00 watts/m^2
04:14 36.9°F 32.9°F 35.6°F 29.57in 7.4mph 95% 0.07in 0.00 watts/m^2
04:19 36.9°F 31.3°F 35.2°F 29.56in 9.8mph 94% 0.07in 0.00 watts/m^2
04:24 36.9°F - 35.2°F 29.55in 2.5mph 94% 0.07in 0.00 watts/m^2
04:29 37.0°F - 35.4°F 29.55in 2.5mph 94% 0.07in 0.00 watts/m^2
04:34 37.0°F - 35.8°F 29.54in 2.5mph 95% 0.00in 0.00 watts/m^2
04:39 37.2°F 33.1°F 35.6°F 29.54in 9.8mph 94% 0.07in 0.00 watts/m^2
04:44 37.2°F 34.5°F 36.0°F 29.54in 4.9mph 95% 0.00in 0.00 watts/m^2
04:49 37.2°F 32.4°F 35.6°F 29.54in 7.4mph 94% 0.07in 0.00 watts/m^2
04:54 37.2°F 34.1°F 36.0°F 29.52in 4.9mph 95% 0.07in 0.00 watts/m^2
04:59 37.2°F 31.1°F 36.0°F 29.52in 9.8mph 95% 0.07in 0.00 watts/m^2
05:04 37.2°F 32.1°F 35.6°F 29.52in 9.8mph 94% 0.07in 0.00 watts/m^2
05:09 37.2°F 33.6°F 36.0°F 29.50in 7.4mph 95% 0.00in 0.00 watts/m^2
05:14 37.2°F 28.5°F 36.0°F 29.50in 17.4mph 95% 0.07in 0.00 watts/m^2
05:19 37.2°F 33.6°F 36.0°F 29.50in 7.4mph 95% 0.07in 0.00 watts/m^2
05:24 37.2°F 34.1°F 36.0°F 29.48in 4.9mph 95% 0.00in 0.00 watts/m^2
05:29 37.2°F 33.1°F 36.0°F 29.48in 7.4mph 95% 0.00in 0.00 watts/m^2
05:34 37.2°F - 36.0°F 29.49in 2.5mph 95% 0.07in 0.00 watts/m^2
05:39 37.2°F 32.1°F 36.0°F 29.47in 9.8mph 95% 0.07in 0.00 watts/m^2
05:44 37.0°F 29.8°F 35.8°F 29.47in 15.0mph 95% 0.00in 0.00 watts/m^2
05:49 37.0°F 32.2°F 35.8°F 29.47in 9.8mph 95% 0.00in 0.00 watts/m^2
05:54 37.0°F 31.2°F 35.8°F 29.46in 15.0mph 95% 0.00in 0.00 watts/m^2
05:59 37.2°F - 36.0°F 29.47in 4.9mph 95% 0.00in 0.00 watts/m^2
06:04 37.2°F 34.1°F 36.0°F 29.46in 4.9mph 95% 0.07in 0.00 watts/m^2
06:09 37.4°F 33.0°F 36.1°F 29.46in 7.4mph 95% 0.07in 0.00 watts/m^2
06:14 37.6°F 33.2°F 36.3°F 29.45in 7.4mph 95% 0.00in 0.00 watts/m^2
06:19 37.8°F 35.4°F 36.5°F 29.45in 7.4mph 95% 0.00in 0.00 watts/m^2
06:24 38.1°F - 36.9°F 29.45in 2.5mph 95% 0.00in 0.00 watts/m^2
06:29 38.1°F - 36.9°F 29.44in 4.9mph 95% 0.00in 0.00 watts/m^2
06:34 38.3°F - 37.0°F 29.44in 2.5mph 95% 0.07in 0.00 watts/m^2
06:39 38.5°F - 37.2°F 29.44in 2.5mph 95% 0.07in 0.00 watts/m^2
06:44 38.5°F 35.3°F 37.2°F 29.43in 9.8mph 95% 0.07in 0.00 watts/m^2
06:49 38.5°F 31.6°F 36.9°F 29.41in 15.0mph 94% 0.07in 0.00 watts/m^2
06:54 38.5°F 34.3°F 37.2°F 29.40in 7.4mph 95% 0.00in 0.00 watts/m^2
06:59 38.3°F 30.4°F 37.0°F 29.40in 19.9mph 95% 0.07in 0.00 watts/m^2
07:04 38.1°F 31.4°F 37.0°F 29.39in 17.4mph 96% 0.07in 0.00 watts/m^2
07:09 38.1°F 35.8°F 37.0°F 29.39in 9.8mph 96% 0.07in 0.00 watts/m^2
07:14 37.9°F - 36.9°F 29.37in 4.9mph 96% 0.07in 0.00 watts/m^2
07:19 37.9°F 33.3°F 36.9°F 29.36in 9.8mph 96% 0.00in 0.00 watts/m^2
07:24 38.1°F - 36.9°F 29.36in 4.9mph 95% 0.00in 0.00 watts/m^2
07:29 38.1°F 31.5°F 37.0°F 29.35in 15.0mph 96% 0.00in 0.00 watts/m^2
07:34 38.3°F 31.0°F 37.0°F 29.35in 12.3mph 95% 0.00in 0.00 watts/m^2
07:39 38.5°F 33.7°F 37.2°F 29.35in 9.8mph 95% 0.00in 0.43 watts/m^2
07:44 38.5°F 31.6°F 37.4°F 29.36in 15.0mph 96% 0.00in 1.19 watts/m^2
07:49 38.7°F 35.8°F 37.6°F 29.35in 4.9mph 96% 0.00in 1.08 watts/m^2
07:54 38.7°F 33.3°F 37.6°F 29.35in 12.3mph 96% 0.00in 0.86 watts/m^2
07:59 38.8°F - 37.8°F 29.36in 2.5mph 96% 0.00in 0.16 watts/m^2
08:04 38.7°F - 37.6°F 29.36in 4.9mph 96% 0.07in 1.62 watts/m^2
08:09 38.8°F 36.6°F 37.8°F 29.37in 4.9mph 96% 0.14in 3.63 watts/m^2
08:14 38.8°F 35.0°F 37.8°F 29.39in 7.4mph 96% 0.07in 0.00 watts/m^2
08:19 38.8°F - 37.8°F 29.36in 4.9mph 96% 0.07in 2.27 watts/m^2
08:24 39.0°F 35.7°F 38.3°F 29.35in 4.9mph 97% 0.07in 3.90 watts/m^2
08:29 38.8°F 33.9°F 37.8°F 29.36in 9.8mph 96% 0.14in 3.47 watts/m^2
08:34 38.8°F 32.8°F 38.1°F 29.36in 9.8mph 97% 0.14in 3.74 watts/m^2
08:39 38.8°F 33.6°F 37.8°F 29.36in 7.4mph 96% 0.14in 2.49 watts/m^2
08:44 38.7°F 33.8°F 37.9°F 29.31in 9.8mph 97% 0.14in 9.52 watts/m^2
08:49 39.0°F 30.7°F 38.5°F 29.30in 17.4mph 98% 0.07in 8.88 watts/m^2
08:54 39.4°F 34.7°F 38.7°F 29.31in 7.4mph 97% 0.07in 11.03 watts/m^2
08:59 39.9°F 33.0°F 39.2°F 29.30in 12.3mph 97% 0.00in 13.47 watts/m^2
09:04 40.6°F 34.2°F 39.6°F 29.31in 12.3mph 96% 0.00in 8.44 watts/m^2
09:09 41.5°F 38.2°F 40.8°F 29.29in 12.3mph 97% 0.00in 7.03 watts/m^2
09:14 42.3°F 33.5°F 41.5°F 29.28in 22.4mph 97% 0.07in 16.04 watts/m^2
09:19 42.8°F 38.0°F 41.7°F 29.27in 9.8mph 96% 0.07in 15.78 watts/m^2
09:24 43.0°F 40.5°F 42.3°F 29.27in 4.9mph 97% 0.07in 19.60 watts/m^2
09:29 43.0°F 40.1°F 42.3°F 29.28in 7.4mph 97% 0.07in 9.27 watts/m^2
09:34 43.2°F - 42.4°F 29.26in 0.0mph 97% 0.00in 12.45 watts/m^2
09:39 43.2°F - 42.4°F 29.26in 2.5mph 97% 0.00in 17.78 watts/m^2
09:44 43.3°F 39.0°F 42.6°F 29.26in 9.8mph 97% 0.00in 21.81 watts/m^2
09:49 43.5°F 38.8°F 42.8°F 29.25in 9.8mph 97% 0.00in 39.22 watts/m^2
09:54 43.9°F 38.8°F 43.2°F 29.25in 9.8mph 97% 0.00in 45.43 watts/m^2
09:59 44.2°F 41.0°F 43.7°F 29.25in 7.4mph 98% 0.00in 27.37 watts/m^2
10:04 44.6°F 39.8°F 43.9°F 29.25in 9.8mph 97% 0.00in 24.55 watts/m^2
10:09 44.8°F 40.8°F 44.2°F 29.23in 9.8mph 98% 0.00in 16.82 watts/m^2
10:14 45.1°F 40.5°F 44.4°F 29.23in 9.8mph 97% 0.00in 23.81 watts/m^2
10:19 45.1°F 43.7°F 44.6°F 29.23in 4.9mph 98% 0.00in 20.69 watts/m^2
10:24 45.3°F 41.4°F 44.8°F 29.23in 9.8mph 98% 0.00in 27.02 watts/m^2
10:29 45.5°F 40.2°F 45.0°F 29.24in 12.3mph 98% 0.00in 21.90 watts/m^2
10:34 45.5°F 41.9°F 45.0°F 29.23in 7.4mph 98% 0.00in 22.51 watts/m^2
10:39 45.7°F 41.2°F 45.1°F 29.22in 12.3mph 98% 0.00in 15.95 watts/m^2
10:44 45.9°F 42.1°F 45.3°F 29.21in 9.8mph 98% 0.00in 19.95 watts/m^2
10:49 46.2°F 44.8°F 45.7°F 29.21in 4.9mph 98% 0.00in 35.66 watts/m^2
10:54 46.6°F - 46.0°F 29.21in 4.9mph 98% 0.00in 23.42 watts/m^2
10:59 46.0°F 38.2°F 45.9°F 29.24in 24.8mph 99% 0.00in 8.35 watts/m^2
11:04 45.3°F 37.0°F 44.6°F 29.27in 22.4mph 97% 0.00in 8.69 watts/m^2
11:09 44.1°F 34.0°F 43.5°F 29.28in 37.4mph 98% 0.00in 8.35 watts/m^2
11:14 42.6°F 31.6°F 41.9°F 29.28in 34.9mph 97% 0.00in 15.78 watts/m^2
11:19 41.0°F 34.4°F 40.3°F 29.27in 15.0mph 97% 0.00in 30.63 watts/m^2
11:24 39.4°F 31.6°F 38.7°F 29.25in 17.4mph 97% 0.00in 54.63 watts/m^2
11:29 38.5°F 28.3°F 37.8°F 29.25in 24.8mph 97% 0.00in 47.51 watts/m^2
11:34 37.9°F 28.1°F 37.2°F 29.26in 22.4mph 97% 0.00in 57.37 watts/m^2
11:39 37.8°F 25.7°F 36.7°F 29.26in 32.4mph 96% 0.00in 92.94 watts/m^2
11:44 37.6°F 26.3°F 36.5°F 29.25in 27.5mph 96% 0.00in 99.76 watts/m^2
11:49 37.4°F 24.9°F 36.3°F 29.26in 32.4mph 96% 0.00in 111.61 watts/m^2
11:54 37.0°F 22.7°F 35.8°F 29.26in 45.0mph 95% 0.00in 80.67 watts/m^2
11:59 36.7°F 26.0°F 35.1°F 29.26in 27.5mph 94% 0.00in 76.42 watts/m^2
12:04 36.3°F 25.3°F 34.5°F 29.27in 24.8mph 93% 0.00in 85.31 watts/m^2
12:09 36.1°F 26.8°F 34.3°F 29.28in 19.9mph 93% 0.00in 80.54 watts/m^2
12:14 36.0°F 26.2°F 33.8°F 29.27in 19.9mph 92% 0.00in 96.18 watts/m^2
12:19 35.8°F 25.1°F 33.4°F 29.26in 22.4mph 91% 0.00in 106.03 watts/m^2
12:24 35.8°F 22.7°F 33.1°F 29.26in 37.4mph 90% 0.00in 118.60 watts/m^2
12:29 35.8°F 22.9°F 33.1°F 29.26in 34.9mph 90% 0.00in 130.71 watts/m^2
12:34 35.8°F 24.1°F 32.9°F 29.26in 30.0mph 89% 0.00in 156.28 watts/m^2
12:39 35.8°F 22.4°F 32.9°F 29.26in 37.4mph 89% 0.00in 129.26 watts/m^2
12:44 36.0°F 22.0°F 32.7°F 29.27in 40.0mph 88% 0.00in 146.43 watts/m^2
12:49 36.1°F 25.8°F 33.3°F 29.27in 19.9mph 89% 0.00in 158.11 watts/m^2
12:54 36.3°F 23.8°F 33.1°F 29.28in 34.9mph 88% 0.00in 160.41 watts/m^2
12:59 36.5°F 24.9°F 33.3°F 29.27in 27.5mph 88% 0.00in 154.91 watts/m^2
13:04 36.7°F 26.0°F 33.4°F 29.27in 22.4mph 88% 0.00in 122.48 watts/m^2
13:09 36.9°F 25.7°F 33.6°F 29.27in 24.8mph 88% 0.00in 79.82 watts/m^2
13:14 37.0°F 23.7°F 33.3°F 29.28in 37.4mph 86% 0.00in 68.35 watts/m^2
13:19 37.4°F 25.7°F 33.1°F 29.28in 27.5mph 84% 0.00in 86.47 watts/m^2
13:24 37.6°F 22.9°F 32.5°F 29.29in 49.9mph 82% 0.00in 91.67 watts/m^2
13:29 37.8°F 25.1°F 32.7°F 29.29in 40.0mph 82% 0.00in 101.85 watts/m^2
13:34 37.9°F 24.6°F 33.3°F 29.30in 42.5mph 83% 0.00in 85.83 watts/m^2
13:39 37.9°F 24.3°F 32.0°F 29.30in 40.0mph 79% 0.00in 79.05 watts/m^2
13:44 37.9°F 24.4°F 32.0°F 29.31in 40.0mph 79% 0.00in 72.78 watts/m^2
13:49 37.6°F 24.4°F 31.3°F 29.32in 40.0mph 78% 0.00in 68.74 watts/m^2
13:54 37.4°F 23.5°F 31.1°F 29.32in 42.5mph 78% 0.00in 66.14 watts/m^2
13:59 37.0°F 25.4°F 31.1°F 29.33in 32.4mph 79% 0.00in 73.30 watts/m^2
14:04 36.5°F 21.5°F 30.0°F 29.32in 49.9mph 77% 0.00in 89.70 watts/m^2
14:09 36.0°F 21.8°F 29.8°F 29.34in 45.0mph 78% 0.00in 81.44 watts/m^2
14:14 35.6°F 20.1°F 28.8°F 29.33in 49.9mph 76% 0.00in 91.58 watts/m^2
14:19 35.1°F 19.1°F 28.6°F 29.32in 59.9mph 77% 0.00in 90.64 watts/m^2
14:24 34.5°F 18.7°F 27.5°F 29.33in 47.4mph 75% 0.00in 72.52 watts/m^2
14:29 34.0°F 18.0°F 27.0°F 29.34in 47.4mph 75% 0.00in 90.26 watts/m^2
14:34 33.3°F 17.0°F 26.2°F 29.35in 49.9mph 75% 0.00in 70.52 watts/m^2
14:39 32.7°F 16.9°F 26.1°F 29.36in 47.4mph 76% 0.00in 50.38 watts/m^2
14:44 32.2°F 17.8°F 25.2°F 29.37in 34.9mph 75% 0.00in 44.56 watts/m^2
14:49 31.8°F 16.0°F 24.1°F 29.39in 42.5mph 73% 0.00in 44.26 watts/m^2
14:54 31.3°F 14.9°F 23.9°F 29.39in 45.0mph 74% 0.00in 44.34 watts/m^2
14:59 30.9°F 12.4°F 23.4°F 29.39in 57.5mph 73% 0.00in 44.30 watts/m^2
15:04 30.7°F 15.4°F 23.7°F 29.40in 47.4mph 75% 0.00in 43.48 watts/m^2
15:09 30.4°F 13.1°F 22.8°F 29.40in 47.4mph 73% 0.00in 41.52 watts/m^2
15:14 30.0°F 13.7°F 22.5°F 29.40in 40.0mph 73% 0.00in 47.34 watts/m^2
15:19 29.8°F 12.9°F 21.9°F 29.40in 42.5mph 72% 0.00in 57.63 watts/m^2
15:24 29.7°F 14.4°F 22.5°F 29.41in 34.9mph 74% 0.00in 63.83 watts/m^2
15:29 29.5°F 10.7°F 21.6°F 29.41in 55.0mph 72% 0.00in 66.27 watts/m^2
15:34 29.1°F 12.3°F 20.8°F 29.42in 40.0mph 71% 0.00in 59.75 watts/m^2
15:39 28.9°F 10.9°F 20.1°F 29.42in 47.4mph 69% 0.00in 65.61 watts/m^2
15:44 28.8°F 10.3°F 19.9°F 29.43in 52.6mph 69% 0.00in 57.76 watts/m^2
15:49 28.6°F 10.2°F 19.4°F 29.44in 52.6mph 68% 0.00in 43.43 watts/m^2
15:54 28.4°F 10.3°F 19.2°F 29.45in 47.4mph 68% 0.00in 39.31 watts/m^2
15:59 28.0°F 8.1°F 18.5°F 29.45in 59.9mph 67% 0.00in 50.86 watts/m^2
16:04 27.9°F 10.6°F 19.0°F 29.46in 45.0mph 69% 0.00in 50.07 watts/m^2
16:09 27.7°F 10.9°F 17.8°F 29.47in 37.4mph 66% 0.00in 45.99 watts/m^2
16:14 27.5°F 8.1°F 17.6°F 29.47in 57.5mph 66% 0.00in 40.05 watts/m^2
16:19 27.1°F 7.6°F 16.9°F 29.49in 52.6mph 65% 0.00in 32.93 watts/m^2
16:24 27.0°F 10.7°F 17.1°F 29.49in 34.9mph 66% 0.00in 28.72 watts/m^2
16:29 26.8°F 9.7°F 17.2°F 29.49in 40.0mph 67% 0.00in 24.51 watts/m^2
16:34 26.6°F 6.2°F 17.1°F 29.50in 62.4mph 67% 0.00in 20.69 watts/m^2
Comma Delimited File
Powered by Weather Underground, Inc.